createdAt,value
2018-09-09T00:01:57.028Z,100123.00
2018-09-09T00:04:26.398Z,100123.00
2018-09-09T00:06:55.924Z,100132.00
2018-09-09T00:09:30.578Z,100134.00
2018-09-09T00:12:00.038Z,100138.00
2018-09-09T00:14:29.452Z,100136.00
2018-09-09T00:16:58.773Z,100130.00
2018-09-09T00:19:28.379Z,100137.00
2018-09-09T00:21:58.072Z,100141.00
2018-09-09T00:24:27.522Z,100146.00
2018-09-09T00:26:56.998Z,100143.00
2018-09-09T00:29:26.386Z,100148.00
2018-09-09T00:31:55.691Z,100135.00
2018-09-09T00:34:25.583Z,100128.00
2018-09-09T00:36:55.397Z,100124.00
2018-09-09T00:39:24.734Z,100126.00
2018-09-09T00:41:54.168Z,100130.00
2018-09-09T00:44:23.516Z,100143.00
2018-09-09T00:46:52.856Z,100143.00
2018-09-09T00:50:31.619Z,100128.00
2018-09-09T00:53:06.308Z,100129.00
2018-09-09T00:55:35.765Z,100117.00
2018-09-09T00:58:05.421Z,100124.00
2018-09-09T01:00:40.041Z,100113.00
2018-09-09T01:03:09.536Z,100104.00
2018-09-09T01:05:38.957Z,100101.00
2018-09-09T01:08:08.440Z,100101.00
2018-09-09T01:10:37.881Z,100112.00
2018-09-09T01:13:07.434Z,100107.00
2018-09-09T01:15:36.757Z,100109.00
2018-09-09T01:18:06.397Z,100112.00
2018-09-09T01:20:35.789Z,100113.00
2018-09-09T01:23:05.276Z,100116.00
2018-09-09T01:25:34.820Z,100117.00
2018-09-09T01:28:04.316Z,100116.00
2018-09-09T01:30:33.823Z,100117.00
2018-09-09T01:33:03.196Z,100114.00
2018-09-09T01:35:33.150Z,100114.00
2018-09-09T01:38:02.546Z,100122.00
2018-09-09T01:40:32.581Z,100124.00
2018-09-09T01:43:02.064Z,100126.00
2018-09-09T01:45:31.372Z,100123.00
2018-09-09T01:48:00.917Z,100133.00
2018-09-09T01:50:30.260Z,100134.00
2018-09-09T01:52:59.704Z,100127.00
2018-09-09T01:55:29.725Z,100133.00
2018-09-09T01:57:59.056Z,100142.00
2018-09-09T02:00:28.464Z,100136.00
2018-09-09T02:02:57.924Z,100130.00
2018-09-09T02:05:27.237Z,100125.00
2018-09-09T02:07:56.564Z,100116.00
2018-09-09T02:10:26.081Z,100112.00
2018-09-09T02:12:56.094Z,100105.00
2018-09-09T02:15:26.417Z,100102.00
2018-09-09T02:17:55.883Z,100089.00
2018-09-09T02:20:25.390Z,100093.00
2018-09-09T02:22:54.803Z,100096.00
2018-09-09T02:25:24.350Z,100099.00
2018-09-09T02:27:53.656Z,100095.00
2018-09-09T02:30:22.982Z,100105.00
2018-09-09T02:32:52.436Z,100107.00
2018-09-09T02:35:21.959Z,100116.00
2018-09-09T02:37:51.420Z,100114.00
2018-09-09T02:40:20.778Z,100117.00
2018-09-09T02:42:50.177Z,100116.00
2018-09-09T02:45:19.535Z,100116.00
2018-09-09T02:47:48.884Z,100115.00
2018-09-09T02:50:18.719Z,100114.00
2018-09-09T02:52:48.136Z,100118.00
2018-09-09T02:55:17.545Z,100119.00
2018-09-09T02:57:46.865Z,100123.00
2018-09-09T03:00:16.250Z,100123.00
2018-09-09T03:02:45.708Z,100125.00
2018-09-09T03:05:15.198Z,100123.00
2018-09-09T03:07:44.555Z,100118.00
2018-09-09T03:10:14.076Z,100129.00
2018-09-09T03:12:43.552Z,100138.00
2018-09-09T03:15:13.025Z,100136.00
2018-09-09T03:17:42.512Z,100128.00
2018-09-09T03:20:11.888Z,100131.00
2018-09-09T03:22:41.361Z,100131.00
2018-09-09T03:25:10.687Z,100135.00
2018-09-09T03:27:40.002Z,100130.00
2018-09-09T03:30:09.404Z,100129.00
2018-09-09T03:32:38.914Z,100137.00
2018-09-09T03:35:08.339Z,100123.00
2018-09-09T03:37:37.848Z,100125.00
2018-09-09T03:40:07.267Z,100117.00
2018-09-09T03:42:36.564Z,100126.00
2018-09-09T03:45:06.793Z,100124.00
2018-09-09T03:47:36.269Z,100112.00
2018-09-09T03:50:05.706Z,100108.00
2018-09-09T03:52:35.125Z,100111.00
2018-09-09T03:55:04.580Z,100111.00
2018-09-09T03:57:34.025Z,100120.00
2018-09-09T04:00:03.454Z,100124.00
2018-09-09T04:02:32.880Z,100120.00
2018-09-09T04:05:02.188Z,100107.00
2018-09-09T04:07:31.559Z,100096.00
2018-09-09T04:10:01.764Z,100093.00
2018-09-09T04:12:31.142Z,100102.00
2018-09-09T04:15:00.541Z,100095.00
2018-09-09T04:17:30.081Z,100093.00
2018-09-09T04:19:59.506Z,100092.00
2018-09-09T04:22:28.833Z,100106.00
2018-09-09T04:24:58.267Z,100105.00
2018-09-09T04:27:27.714Z,100118.00
2018-09-09T04:29:57.118Z,100115.00
2018-09-09T04:32:26.636Z,100115.00
2018-09-09T04:34:55.964Z,100130.00
2018-09-09T04:37:25.568Z,100128.00
2018-09-09T04:39:55.041Z,100124.00
2018-09-09T04:42:24.448Z,100131.00
2018-09-09T04:44:53.939Z,100133.00
2018-09-09T04:47:23.337Z,100132.00
2018-09-09T04:49:52.772Z,100130.00
2018-09-09T04:52:22.189Z,100121.00
2018-09-09T04:54:51.590Z,100118.00
2018-09-09T04:57:20.899Z,100114.00
2018-09-09T04:59:50.580Z,100114.00
2018-09-09T05:02:19.926Z,100120.00
2018-09-09T05:04:49.309Z,100122.00
2018-09-09T05:07:18.977Z,100137.00
2018-09-09T05:09:48.293Z,100147.00
2018-09-09T05:12:17.785Z,100141.00
2018-09-09T05:14:47.256Z,100144.00
2018-09-09T05:17:16.653Z,100137.00
2018-09-09T05:19:46.681Z,100127.00
2018-09-09T05:22:16.610Z,100123.00
2018-09-09T05:24:45.947Z,100139.00
2018-09-09T05:27:15.274Z,100138.00
2018-09-09T05:29:44.642Z,100147.00
2018-09-09T05:32:14.121Z,100149.00
2018-09-09T05:34:43.545Z,100147.00
2018-09-09T05:37:12.977Z,100156.00
2018-09-09T05:39:42.448Z,100152.00
2018-09-09T05:42:11.818Z,100151.00
2018-09-09T05:44:41.449Z,100151.00
2018-09-09T05:47:11.109Z,100151.00
2018-09-09T05:49:40.577Z,100153.00
2018-09-09T05:52:09.998Z,100150.00
2018-09-09T05:54:39.502Z,100156.00
2018-09-09T05:57:09.015Z,100156.00
2018-09-09T05:59:38.324Z,100151.00
2018-09-09T06:02:07.837Z,100158.00
2018-09-09T06:04:37.333Z,100155.00
2018-09-09T06:07:07.509Z,100169.00
2018-09-09T06:09:37.013Z,100170.00
2018-09-09T06:12:06.448Z,100163.00
2018-09-09T06:14:35.930Z,100165.00
2018-09-09T06:17:05.700Z,100165.00
2018-09-09T06:19:36.059Z,100162.00
2018-09-09T06:22:05.682Z,100166.00
2018-09-09T06:24:35.089Z,100173.00
2018-09-09T06:27:04.510Z,100162.00
2018-09-09T06:29:33.964Z,100165.00
2018-09-09T06:32:04.064Z,100166.00
2018-09-09T06:34:33.371Z,100161.00
2018-09-09T06:37:02.700Z,100148.00
2018-09-09T06:39:32.036Z,100152.00
2018-09-09T06:42:01.396Z,100157.00
2018-09-09T06:44:30.724Z,100162.00
2018-09-09T06:47:00.728Z,100156.00
2018-09-09T06:49:30.164Z,100159.00
2018-09-09T06:51:59.769Z,100165.00
2018-09-09T06:54:29.156Z,100162.00
2018-09-09T06:56:58.588Z,100175.00
2018-09-09T06:59:27.987Z,100193.00
2018-09-09T07:01:57.370Z,100203.00
2018-09-09T07:04:26.861Z,100208.00
2018-09-09T07:06:56.320Z,100199.00
2018-09-09T07:09:25.752Z,100203.00
2018-09-09T07:11:55.242Z,100202.00
2018-09-09T07:14:24.648Z,100203.00
2018-09-09T07:16:54.152Z,100198.00
2018-09-09T07:19:23.602Z,100195.00
2018-09-09T07:21:53.044Z,100187.00
2018-09-09T07:24:22.468Z,100186.00
2018-09-09T07:26:51.796Z,100185.00
2018-09-09T07:29:21.271Z,100183.00
2018-09-09T07:31:50.752Z,100181.00
2018-09-09T07:34:20.837Z,100190.00
2018-09-09T07:36:50.160Z,100190.00
2018-09-09T07:39:19.574Z,100196.00
2018-09-09T07:41:49.017Z,100197.00
2018-09-09T07:44:18.812Z,100199.00
2018-09-09T07:46:48.336Z,100202.00
2018-09-09T07:49:17.872Z,100206.00
2018-09-09T07:51:47.425Z,100202.00
2018-09-09T07:54:16.759Z,100205.00
2018-09-09T07:56:46.263Z,100201.00
2018-09-09T07:59:15.717Z,100196.00
2018-09-09T08:01:46.162Z,100200.00
2018-09-09T08:04:15.625Z,100206.00
2018-09-09T08:06:45.040Z,100211.00
2018-09-09T08:09:14.573Z,100214.00
2018-09-09T08:11:43.931Z,100204.00
2018-09-09T08:14:13.374Z,100208.00
2018-09-09T08:16:42.841Z,100208.00
2018-09-09T08:19:12.286Z,100215.00
2018-09-09T08:21:41.600Z,100200.00
2018-09-09T08:24:11.073Z,100209.00
2018-09-09T08:26:40.593Z,100208.00
2018-09-09T08:29:09.973Z,100213.00
2018-09-09T08:31:39.344Z,100216.00
2018-09-09T08:34:08.796Z,100213.00
2018-09-09T08:36:38.194Z,100208.00
2018-09-09T08:39:10.632Z,100210.00
2018-09-09T08:41:40.416Z,100205.00
2018-09-09T08:44:10.529Z,100205.00
2018-09-09T08:46:40.175Z,100205.00
2018-09-09T08:49:09.523Z,100198.00
2018-09-09T08:51:39.081Z,100199.00
2018-09-09T08:54:08.436Z,100184.00
2018-09-09T08:56:37.885Z,100196.00
2018-09-09T08:59:07.373Z,100195.00
2018-09-09T09:01:36.749Z,100197.00
2018-09-09T09:04:06.284Z,100194.00
2018-09-09T09:06:36.627Z,100198.00
2018-09-09T09:09:09.645Z,100197.00
2018-09-09T09:11:39.218Z,100197.00
2018-09-09T09:14:08.625Z,100197.00
2018-09-09T09:16:38.660Z,100188.00
2018-09-09T09:19:08.112Z,100199.00
2018-09-09T09:21:37.469Z,100199.00
2018-09-09T09:24:07.202Z,100201.00
2018-09-09T09:26:36.714Z,100193.00
2018-09-09T09:29:06.157Z,100193.00
2018-09-09T09:31:35.608Z,100192.00
2018-09-09T09:34:04.986Z,100192.00
2018-09-09T09:36:34.602Z,100187.00
2018-09-09T09:39:04.960Z,100193.00
2018-09-09T09:41:34.332Z,100190.00
2018-09-09T09:44:03.863Z,100191.00
2018-09-09T09:46:33.216Z,100193.00
2018-09-09T09:49:02.695Z,100196.00
2018-09-09T09:51:32.072Z,100184.00
2018-09-09T09:54:01.506Z,100189.00
2018-09-09T09:56:30.836Z,100177.00
2018-09-09T09:59:00.320Z,100181.00
2018-09-09T10:01:29.704Z,100185.00
2018-09-09T10:03:59.135Z,100186.00
2018-09-09T10:06:28.577Z,100187.00
2018-09-09T10:08:58.136Z,100176.00
2018-09-09T10:11:27.638Z,100181.00
2018-09-09T10:13:57.251Z,100183.00
2018-09-09T10:16:26.741Z,100177.00
2018-09-09T10:18:56.152Z,100181.00
2018-09-09T10:21:25.685Z,100180.00
2018-09-09T10:23:55.199Z,100179.00
2018-09-09T10:26:24.721Z,100186.00
2018-09-09T10:28:54.082Z,100182.00
2018-09-09T10:31:23.640Z,100186.00
2018-09-09T10:33:52.988Z,100188.00
2018-09-09T10:36:22.394Z,100189.00
2018-09-09T10:38:51.931Z,100186.00
2018-09-09T10:41:21.997Z,100190.00
2018-09-09T10:43:51.466Z,100187.00
2018-09-09T10:46:21.090Z,100189.00
2018-09-09T10:48:50.521Z,100179.00
2018-09-09T10:51:19.978Z,100176.00
2018-09-09T10:53:49.318Z,100172.00
2018-09-09T10:56:18.806Z,100178.00
2018-09-09T10:58:48.215Z,100174.00
2018-09-09T11:01:17.581Z,100174.00
2018-09-09T11:03:47.253Z,100180.00
2018-09-09T11:06:16.631Z,100175.00
2018-09-09T11:08:45.970Z,100172.00
2018-09-09T11:11:16.098Z,100182.00
2018-09-09T11:13:45.479Z,100181.00
2018-09-09T11:16:14.870Z,100184.00
2018-09-09T11:18:45.345Z,100191.00
2018-09-09T11:21:14.833Z,100193.00
2018-09-09T11:23:44.373Z,100189.00
2018-09-09T11:26:13.929Z,100189.00
2018-09-09T11:28:43.346Z,100183.00
2018-09-09T11:31:12.761Z,100192.00
2018-09-09T11:33:42.617Z,100197.00
2018-09-09T11:36:13.323Z,100196.00
2018-09-09T11:38:42.753Z,100200.00
2018-09-09T11:41:12.667Z,100194.00
2018-09-09T11:43:42.191Z,100187.00
2018-09-09T11:46:12.141Z,100191.00
2018-09-09T11:48:41.970Z,100194.00
2018-09-09T11:51:11.465Z,100198.00
2018-09-09T11:53:40.994Z,100205.00
2018-09-09T11:56:10.402Z,100199.00
2018-09-09T11:58:39.908Z,100195.00
2018-09-09T12:01:09.302Z,100203.00
2018-09-09T12:03:38.834Z,100198.00
2018-09-09T12:06:08.437Z,100194.00
2018-09-09T12:08:37.953Z,100195.00
2018-09-09T12:11:07.683Z,100192.00
2018-09-09T12:13:37.240Z,100191.00
2018-09-09T12:16:06.907Z,100193.00
2018-09-09T12:18:36.375Z,100195.00
2018-09-09T12:21:05.909Z,100192.00
2018-09-09T12:23:35.436Z,100190.00
2018-09-09T12:26:04.964Z,100196.00
2018-09-09T12:28:34.354Z,100199.00
2018-09-09T12:31:04.517Z,100202.00
2018-09-09T12:33:34.034Z,100195.00
2018-09-09T12:36:03.547Z,100191.00
2018-09-09T12:38:32.972Z,100198.00
2018-09-09T12:41:02.472Z,100185.00
2018-09-09T12:43:37.191Z,100184.00
2018-09-09T12:46:12.116Z,100187.00
2018-09-09T12:48:46.920Z,100192.00
2018-09-09T12:51:16.463Z,100192.00
2018-09-09T12:53:46.893Z,100192.00
2018-09-09T12:56:16.304Z,100197.00
2018-09-09T12:58:45.721Z,100194.00
2018-09-09T13:01:15.153Z,100197.00
2018-09-09T13:03:44.633Z,100197.00
2018-09-09T13:06:14.096Z,100201.00
2018-09-09T13:08:44.292Z,100208.00
2018-09-09T13:11:13.762Z,100201.00
2018-09-09T13:13:43.188Z,100206.00
2018-09-09T13:16:13.308Z,100201.00
2018-09-09T13:18:43.432Z,100203.00
2018-09-09T13:21:12.934Z,100207.00
2018-09-09T13:23:42.287Z,100203.00
2018-09-09T13:26:11.765Z,100210.00
2018-09-09T13:28:41.872Z,100196.00
2018-09-09T13:31:11.380Z,100199.00
2018-09-09T13:33:41.344Z,100193.00
2018-09-09T13:36:11.733Z,100196.00
2018-09-09T13:38:41.346Z,100198.00
2018-09-09T13:41:10.734Z,100195.00
2018-09-09T13:43:40.257Z,100193.00
2018-09-09T13:46:11.100Z,100190.00
2018-09-09T13:48:40.494Z,100191.00
2018-09-09T13:51:09.968Z,100186.00
2018-09-09T13:53:39.466Z,100190.00
2018-09-09T13:56:08.940Z,100179.00
2018-09-09T13:58:38.565Z,100175.00
2018-09-09T14:01:07.945Z,100179.00
2018-09-09T14:03:37.382Z,100185.00
2018-09-09T14:06:06.958Z,100173.00
2018-09-09T14:08:36.328Z,100171.00
2018-09-09T14:11:05.800Z,100164.00
2018-09-09T14:13:35.243Z,100163.00
2018-09-09T14:16:04.771Z,100168.00
2018-09-09T14:18:34.209Z,100177.00
2018-09-09T14:21:03.611Z,100182.00
2018-09-09T14:23:33.082Z,100180.00
2018-09-09T14:26:02.565Z,100178.00
2018-09-09T14:28:32.122Z,100176.00
2018-09-09T14:31:01.463Z,100180.00
2018-09-09T14:33:30.805Z,100185.00
2018-09-09T14:36:00.173Z,100183.00
2018-09-09T14:38:29.771Z,100184.00
2018-09-09T14:40:59.166Z,100183.00
2018-09-09T14:43:28.594Z,100188.00
2018-09-09T14:45:57.923Z,100181.00
2018-09-09T14:48:27.474Z,100181.00
2018-09-09T14:50:56.853Z,100177.00
2018-09-09T14:53:26.279Z,100175.00
2018-09-09T14:55:56.193Z,100175.00
2018-09-09T14:58:25.761Z,100180.00
2018-09-09T15:00:55.359Z,100166.00
2018-09-09T15:03:25.086Z,100169.00
2018-09-09T15:05:54.499Z,100168.00
2018-09-09T15:08:24.729Z,100171.00
2018-09-09T15:10:54.185Z,100176.00
2018-09-09T15:13:24.676Z,100171.00
2018-09-09T15:15:54.122Z,100174.00
2018-09-09T15:18:24.175Z,100165.00
2018-09-09T15:20:53.629Z,100165.00
2018-09-09T15:23:23.049Z,100162.00
2018-09-09T15:25:52.436Z,100164.00
2018-09-09T15:28:21.990Z,100156.00
2018-09-09T15:30:51.382Z,100163.00
2018-09-09T15:33:20.857Z,100162.00
2018-09-09T15:35:50.302Z,100159.00
2018-09-09T15:38:19.680Z,100155.00
2018-09-09T15:40:49.015Z,100161.00
2018-09-09T15:43:19.021Z,100157.00
2018-09-09T15:45:48.351Z,100162.00
2018-09-09T15:48:18.502Z,100163.00
2018-09-09T15:50:47.870Z,100157.00
2018-09-09T15:53:17.403Z,100159.00
2018-09-09T15:55:47.000Z,100159.00
2018-09-09T15:58:16.373Z,100170.00
2018-09-09T16:00:45.981Z,100168.00
2018-09-09T16:03:15.309Z,100164.00
2018-09-09T16:05:44.679Z,100170.00
2018-09-09T16:08:14.401Z,100163.00
2018-09-09T16:10:43.756Z,100162.00
2018-09-09T16:13:13.166Z,100170.00
2018-09-09T16:15:42.673Z,100168.00
2018-09-09T16:18:12.083Z,100172.00
2018-09-09T16:20:41.580Z,100173.00
2018-09-09T16:23:11.074Z,100183.00
2018-09-09T16:25:40.606Z,100192.00
2018-09-09T16:28:10.101Z,100186.00
2018-09-09T16:30:39.534Z,100186.00
2018-09-09T16:33:08.928Z,100179.00
2018-09-09T16:35:38.584Z,100180.00
2018-09-09T16:38:07.967Z,100181.00
2018-09-09T16:40:37.326Z,100183.00
2018-09-09T16:43:08.137Z,100185.00
2018-09-09T16:45:38.394Z,100189.00
2018-09-09T16:48:07.771Z,100186.00
2018-09-09T16:50:37.249Z,100192.00
2018-09-09T16:53:06.794Z,100197.00
2018-09-09T16:55:36.242Z,100185.00
2018-09-09T16:58:05.998Z,100183.00
2018-09-09T17:00:35.435Z,100186.00
2018-09-09T17:03:04.951Z,100188.00
2018-09-09T17:05:34.557Z,100185.00
2018-09-09T17:08:04.203Z,100177.00
2018-09-09T17:10:33.474Z,100180.00
2018-09-09T17:13:03.425Z,100167.00
2018-09-09T17:15:33.050Z,100163.00
2018-09-09T17:18:03.389Z,100171.00
2018-09-09T17:20:32.633Z,100169.00
2018-09-09T17:23:02.073Z,100176.00
2018-09-09T17:25:31.457Z,100179.00
2018-09-09T17:28:01.229Z,100175.00
2018-09-09T17:30:31.405Z,100183.00
2018-09-09T17:33:00.941Z,100184.00
2018-09-09T17:35:30.428Z,100187.00
2018-09-09T17:37:59.886Z,100193.00
2018-09-09T17:40:29.287Z,100195.00
2018-09-09T17:42:58.596Z,100194.00
2018-09-09T17:45:28.533Z,100200.00
2018-09-09T17:47:58.205Z,100202.00
2018-09-09T17:50:27.523Z,100207.00
2018-09-09T17:52:57.310Z,100201.00
2018-09-09T17:55:26.895Z,100209.00
2018-09-09T17:57:56.343Z,100203.00
2018-09-09T18:00:25.669Z,100206.00
2018-09-09T18:02:55.049Z,100209.00
2018-09-09T18:05:24.300Z,100211.00
2018-09-09T18:07:53.960Z,100213.00
2018-09-09T18:10:23.222Z,100209.00
2018-09-09T18:12:52.760Z,100210.00
2018-09-09T18:15:22.162Z,100209.00
2018-09-09T18:17:53.226Z,100211.00
2018-09-09T18:20:22.586Z,100215.00
2018-09-09T18:22:51.878Z,100220.00
2018-09-09T18:25:21.491Z,100225.00
2018-09-09T18:27:50.832Z,100216.00
2018-09-09T18:30:20.191Z,100213.00
2018-09-09T18:32:50.164Z,100214.00
2018-09-09T18:35:19.513Z,100227.00
2018-09-09T18:37:48.876Z,100219.00
2018-09-09T18:40:18.264Z,100222.00
2018-09-09T18:42:48.133Z,100227.00
2018-09-09T18:45:18.001Z,100227.00
2018-09-09T18:47:47.511Z,100229.00
2018-09-09T18:50:16.924Z,100235.00
2018-09-09T18:52:46.332Z,100231.00
2018-09-09T18:55:15.669Z,100226.00
2018-09-09T18:57:44.983Z,100229.00
2018-09-09T19:00:15.353Z,100228.00
2018-09-09T19:02:44.760Z,100228.00
2018-09-09T19:05:14.356Z,100229.00
2018-09-09T19:07:43.689Z,100224.00
2018-09-09T19:10:12.994Z,100228.00
2018-09-09T19:12:42.499Z,100223.00
2018-09-09T19:15:11.955Z,100217.00
2018-09-09T19:17:41.333Z,100218.00
2018-09-09T19:20:10.755Z,100228.00
2018-09-09T19:22:40.249Z,100219.00
2018-09-09T19:25:10.458Z,100222.00
2018-09-09T19:27:39.820Z,100228.00
2018-09-09T19:30:09.168Z,100213.00
2018-09-09T19:32:38.595Z,100217.00
2018-09-09T19:35:08.297Z,100219.00
2018-09-09T19:37:37.598Z,100225.00
2018-09-09T19:40:07.648Z,100227.00
2018-09-09T19:42:37.909Z,100229.00
2018-09-09T19:45:07.644Z,100220.00
2018-09-09T19:47:36.987Z,100223.00
2018-09-09T19:52:38.066Z,100215.00
2018-09-09T19:55:07.564Z,100218.00
2018-09-09T19:57:37.928Z,100220.00
2018-09-09T20:00:07.410Z,100224.00
2018-09-09T20:02:36.812Z,100231.00
2018-09-09T20:05:06.352Z,100223.00
2018-09-09T20:07:35.787Z,100227.00
2018-09-09T20:10:05.222Z,100222.00
2018-09-09T20:12:34.732Z,100225.00
2018-09-09T20:15:05.972Z,100219.00
2018-09-09T20:17:35.332Z,100214.00
2018-09-09T20:20:05.080Z,100213.00
2018-09-09T20:22:34.472Z,100219.00
2018-09-09T20:25:03.968Z,100210.00
2018-09-09T20:27:33.438Z,100221.00
2018-09-09T20:30:02.924Z,100222.00
2018-09-09T20:32:32.289Z,100219.00
2018-09-09T20:35:01.676Z,100223.00
2018-09-09T20:37:31.178Z,100230.00
2018-09-09T20:40:00.562Z,100223.00
2018-09-09T20:42:29.958Z,100230.00
2018-09-09T20:45:00.766Z,100236.00
2018-09-09T20:47:30.279Z,100227.00
2018-09-09T20:49:59.673Z,100235.00
2018-09-09T20:52:29.062Z,100231.00
2018-09-09T20:54:58.439Z,100241.00
2018-09-09T20:57:27.770Z,100239.00
2018-09-09T20:59:57.145Z,100245.00
2018-09-09T21:02:26.491Z,100242.00
2018-09-09T21:04:55.906Z,100241.00
2018-09-09T21:07:25.356Z,100244.00
2018-09-09T21:09:54.807Z,100247.00
2018-09-09T21:12:24.173Z,100253.00
2018-09-09T21:14:53.576Z,100254.00
2018-09-09T21:17:22.936Z,100247.00
2018-09-09T21:19:52.268Z,100241.00
2018-09-09T21:22:21.729Z,100247.00
2018-09-09T21:24:51.077Z,100239.00
2018-09-09T21:27:20.425Z,100245.00
2018-09-09T21:29:49.846Z,100238.00
2018-09-09T21:32:19.229Z,100249.00
2018-09-09T21:34:48.673Z,100242.00
2018-09-09T21:37:18.026Z,100242.00
2018-09-09T21:39:47.356Z,100242.00
2018-09-09T21:42:16.693Z,100249.00
2018-09-09T21:44:46.148Z,100254.00
2018-09-09T21:47:15.477Z,100248.00
2018-09-09T21:49:44.782Z,100250.00
2018-09-09T21:52:14.198Z,100248.00
2018-09-09T21:54:43.530Z,100250.00
2018-09-09T21:57:12.880Z,100240.00
2018-09-09T21:59:42.251Z,100238.00
2018-09-09T22:02:11.656Z,100238.00
2018-09-09T22:04:41.004Z,100242.00
2018-09-09T22:07:11.053Z,100238.00
2018-09-09T22:09:41.734Z,100237.00
2018-09-09T22:12:11.894Z,100239.00
2018-09-09T22:14:41.999Z,100234.00
2018-09-09T22:17:11.793Z,100238.00
2018-09-09T22:19:41.173Z,100231.00
2018-09-09T22:22:10.508Z,100238.00
2018-09-09T22:24:39.830Z,100230.00
2018-09-09T22:27:09.212Z,100230.00
2018-09-09T22:29:38.624Z,100231.00
2018-09-09T22:32:07.954Z,100227.00
2018-09-09T22:34:37.280Z,100231.00
2018-09-09T22:37:06.668Z,100219.00
2018-09-09T22:39:36.001Z,100230.00
2018-09-09T22:42:05.384Z,100231.00
2018-09-09T22:44:34.728Z,100229.00
2018-09-09T22:47:04.036Z,100235.00
2018-09-09T22:49:33.394Z,100239.00
2018-09-09T22:52:02.713Z,100235.00
2018-09-09T22:54:32.123Z,100241.00
2018-09-09T22:57:01.420Z,100239.00
2018-09-09T22:59:30.774Z,100236.00
2018-09-09T23:02:00.120Z,100230.00
2018-09-09T23:04:29.474Z,100226.00
2018-09-09T23:06:58.823Z,100232.00
2018-09-09T23:09:28.171Z,100226.00
2018-09-09T23:11:57.517Z,100226.00
2018-09-09T23:14:26.825Z,100232.00
2018-09-09T23:16:56.275Z,100227.00
2018-09-09T23:19:25.600Z,100231.00
2018-09-09T23:21:54.921Z,100230.00
2018-09-09T23:24:24.251Z,100231.00
2018-09-09T23:26:53.615Z,100229.00
2018-09-09T23:29:22.912Z,100226.00
2018-09-09T23:31:52.288Z,100232.00
2018-09-09T23:34:21.914Z,100231.00
2018-09-09T23:36:51.258Z,100227.00
2018-09-09T23:39:20.612Z,100234.00
2018-09-09T23:41:49.922Z,100228.00
2018-09-09T23:44:19.161Z,100222.00
2018-09-09T23:46:48.492Z,100224.00
2018-09-09T23:49:17.836Z,100218.00
2018-09-09T23:51:47.237Z,100216.00
2018-09-09T23:54:16.594Z,100222.00
2018-09-09T23:56:45.923Z,100220.00
2018-09-09T23:59:16.443Z,100221.00
